This is the latest recevied weather packets stored in our database for station/object OH6HPS. If no packets are shown the sender has not sent any weather packets the latest 10 day(s).
| Time | Temp. | Humidity | Pressure | Rain* | Wind** | Luminosity | Snow |
|---|---|---|---|---|---|---|---|
| 1777880224 | 9.44° C | 58% | 1004.2 hPa | 0 mm | - | 34 W/m² | - |
| 1777879623 | 9.44° C | 56% | 1004.3 hPa | 0 mm | - | 51 W/m² | - |
| 1777879023 | 9.44° C | 55% | 1004.1 hPa | 0 mm | - | 86 W/m² | - |
| 1777878422 | 9.44° C | 56% | 1004.2 hPa | 0 mm | - | 92 W/m² | - |
| 1777877823 | 9.44° C | 55% | 1004 hPa | 0 mm | - | 132 W/m² | - |
| 1777877219 | 9.44° C | 56% | 1003.9 hPa | 0 mm | - | 183 W/m² | - |
| 1777876621 | 9.44° C | 57% | 1004 hPa | 0 mm | - | 276 W/m² | - |
| 1777876019 | 8.89° C | 58% | 1004 hPa | 0 mm | - | 197 W/m² | - |
| 1777875420 | 8.89° C | 60% | 1004 hPa | 0 mm | - | 136 W/m² | - |
| 1777874811 | 8.33° C | 59% | 1004.1 hPa | 0 mm | - | 132 W/m² | - |
| 1777874211 | 8.33° C | 61% | 1004 hPa | 0 mm | - | 146 W/m² | - |
| 1777873612 | 7.78° C | 63% | 1004.3 hPa | 0 mm | - | 157 W/m² | - |
| 1777873011 | 7.78° C | 65% | 1004.4 hPa | 0 mm | - | 178 W/m² | - |
| 1777872409 | 7.22° C | 65% | 1004.6 hPa | 0 mm | - | 169 W/m² | - |
| 1777871856 | 6.67° C | 68% | 1004.7 hPa | 0 mm | - | 109 W/m² | - |
| 1777871807 | 6.67° C | 67% | 1004.5 hPa | 0 mm | - | 155 W/m² | - |
| 1777871780 | 6.11° C | 67% | 1004.9 hPa | 0 mm | - | 72 W/m² | - |
| 1777870003 | 6.11° C | 68% | 1005.1 hPa | 0 mm | - | 49 W/m² | - |
| 1777869403 | 6.11° C | 69% | 1005.1 hPa | 0 mm | - | 78 W/m² | - |
| 1777868805 | 5.56° C | 70% | 1005.3 hPa | 0 mm | - | 51 W/m² | - |
| 1777868203 | 5.56° C | 70% | 1005.3 hPa | 0 mm | - | 39 W/m² | - |
| 1777867602 | 5.56° C | 72% | 1005.5 hPa | 0 mm | - | 49 W/m² | - |
| 1777867001 | 5° C | 72% | 1005.4 hPa | 0 mm | - | 44 W/m² | - |
| 1777866400 | 5° C | 74% | 1005.5 hPa | 0 mm | - | 48 W/m² | - |
| 1777865801 | 4.44° C | 76% | 1005.4 hPa | 0 mm | - | 51 W/m² | - |
* Rain latest hour (hover to see other rain measurements)
** Current wind speed in m/s (hover to see current wind gust speed)